Time;durP1;ratioP1;P1;durP2;ratioP2;P2;SDS_P1;SDS_P2;PMS_P1;PMS_P2;Temp;Humidity;BMP_temperature;BMP_pressure;BME280_temperature;BME280_humidity;BME280_pressure;Samples;Min_cycle;Max_cycle;Signal;HPM_P1;HPM_P2
2022/03/17 00:00:01;;;;;;;23.42;20.98;;;11.70;99.90;;;;;;5009730;28;20471;-66
2022/03/17 00:02:26;;;;;;;24.42;21.38;;;11.60;99.90;;;;;;5009844;28;20044;-66
2022/03/17 00:04:52;;;;;;;27.10;21.98;;;11.60;99.90;;;;;;5009184;28;20515;-66
2022/03/17 00:07:18;;;;;;;25.65;22.38;;;11.70;99.90;;;;;;5009826;28;20033;-65
2022/03/17 00:09:44;;;;;;;25.83;21.98;;;11.50;99.90;;;;;;5009572;28;20030;-66
2022/03/17 00:12:10;;;;;;;27.13;22.23;;;11.70;99.90;;;;;;5009196;28;20030;-66
2022/03/17 00:14:36;;;;;;;27.83;24.65;;;11.50;99.90;;;;;;5008995;28;20026;-66
2022/03/17 00:17:02;;;;;;;28.63;22.92;;;;;;;;;;5008772;28;20153;-65
2022/03/17 00:19:28;;;;;;;27.67;22.25;;;11.60;99.90;;;;;;5009603;28;20046;-66
2022/03/17 00:21:53;;;;;;;25.33;22.60;;;11.70;99.90;;;;;;5009128;28;20030;-66
2022/03/17 00:24:19;;;;;;;26.27;22.02;;;;;;;;;;5008504;28;20029;-66
2022/03/17 00:26:45;;;;;;;24.73;22.02;;;12.00;99.90;;;;;;5009524;28;20030;-66
2022/03/17 00:29:11;;;;;;;26.75;22.30;;;11.60;99.90;;;;;;5009662;28;20033;-66
2022/03/17 00:31:37;;;;;;;24.92;22.10;;;11.60;99.90;;;;;;5008775;28;20033;-66
2022/03/17 00:34:07;;;;;;;27.27;23.15;;;11.40;99.90;;;;;;5009290;28;20088;-66
2022/03/17 00:36:34;;;;;;;27.98;23.35;;;11.50;99.90;;;;;;5009682;28;20021;-66
2022/03/17 00:39:00;;;;;;;25.83;23.08;;;11.60;99.90;;;;;;5008559;28;20057;-66
2022/03/17 00:41:26;;;;;;;26.50;22.77;;;;;;;;;;5009296;28;20400;-66
2022/03/17 00:43:51;;;;;;;25.17;22.25;;;11.50;99.90;;;;;;5008797;28;20096;-66
2022/03/17 00:46:17;;;;;;;28.75;22.23;;;;;;;;;;5007529;28;20045;-66
2022/03/17 00:48:43;;;;;;;28.15;24.98;;;11.40;99.90;;;;;;5009203;28;20065;-66
2022/03/17 00:51:08;;;;;;;29.10;23.02;;;11.40;99.90;;;;;;5008634;28;20034;-66
2022/03/17 00:53:34;;;;;;;26.85;23.40;;;11.40;99.90;;;;;;5008409;28;20038;-66
2022/03/17 00:55:59;;;;;;;32.28;24.65;;;11.50;99.90;;;;;;5012285;28;20018;-66
2022/03/17 00:58:29;;;;;;;29.52;24.95;;;;;;;;;;5014326;28;20025;-66
2022/03/17 01:00:54;;;;;;;28.60;22.77;;;11.40;99.90;;;;;;5015163;28;20022;-66
2022/03/17 01:03:20;;;;;;;28.23;24.45;;;;;;;;;;5014638;28;20033;-66
2022/03/17 01:05:46;;;;;;;30.20;24.58;;;11.30;99.90;;;;;;5013949;28;20034;-65
2022/03/17 01:08:11;;;;;;;27.13;24.02;;;11.20;99.90;;;;;;5015101;28;20026;-66
2022/03/17 01:10:38;;;;;;;26.63;23.33;;;11.20;99.90;;;;;;5015281;28;20030;-66
2022/03/17 01:13:05;;;;;;;29.75;22.90;;;11.30;99.90;;;;;;5015218;28;20042;-66
2022/03/17 01:15:31;;;;;;;27.63;22.50;;;;;;;;;;5015658;28;20029;-66
2022/03/17 01:17:56;;;;;;;28.90;22.98;;;11.40;99.90;;;;;;5015213;28;20022;-66
2022/03/17 01:20:22;;;;;;;25.55;22.75;;;11.40;99.90;;;;;;5015635;28;20357;-66
2022/03/17 01:22:48;;;;;;;24.15;21.33;;;;;;;;;;5014647;28;20041;-66
2022/03/17 01:25:14;;;;;;;25.95;21.92;;;11.30;99.90;;;;;;5015120;28;20060;-66
2022/03/17 01:27:39;;;;;;;26.90;21.77;;;11.30;99.90;;;;;;5015353;28;20022;-66
2022/03/17 01:30:09;;;;;;;26.83;21.70;;;11.20;99.90;;;;;;5015054;28;20025;-66
2022/03/17 01:32:37;;;;;;;25.42;21.00;;;11.30;99.90;;;;;;5015514;28;20048;-66
2022/03/17 01:35:03;;;;;;;28.48;22.27;;;11.10;99.90;;;;;;5015064;28;20018;-66
2022/03/17 01:37:29;;;;;;;24.65;20.88;;;11.30;99.90;;;;;;5015031;28;20032;-66
2022/03/17 01:39:54;;;;;;;25.58;20.50;;;11.20;99.90;;;;;;5014930;28;20037;-66
2022/03/17 01:42:20;;;;;;;28.50;20.70;;;11.40;99.90;;;;;;5014878;28;20034;-66
2022/03/17 01:44:45;;;;;;;24.80;22.15;;;11.50;99.90;;;;;;5015316;28;20435;-66
2022/03/17 01:47:29;;;;;;;26.35;21.38;;;11.50;99.90;;;;;;5014933;28;20034;-66
2022/03/17 01:50:00;;;;;;;24.60;20.02;;;11.70;99.20;;;;;;5014741;28;20026;-66
2022/03/17 01:52:27;;;;;;;25.70;21.00;;;11.40;99.90;;;;;;5015276;28;20093;-66
2022/03/17 01:54:53;;;;;;;30.17;22.10;;;11.50;99.90;;;;;;5014976;28;20022;-66
2022/03/17 01:57:20;;;;;;;22.38;18.30;;;11.70;99.90;;;;;;5015232;28;20091;-66
2022/03/17 01:59:47;;;;;;;26.83;21.60;;;11.70;99.90;;;;;;5013927;28;20071;-66
2022/03/17 02:02:13;;;;;;;26.07;19.83;;;11.60;99.90;;;;;;5014135;28;20708;-66
2022/03/17 02:04:43;;;;;;;25.52;21.65;;;11.80;98.70;;;;;;5014373;28;20052;-66
2022/03/17 02:07:14;;;;;;;23.20;20.08;;;11.90;99.90;;;;;;5013096;28;20405;-66
2022/03/17 02:09:40;;;;;;;24.15;20.15;;;11.70;99.90;;;;;;5011969;28;20129;-66
2022/03/17 02:14:50;;;;;;;;;;;11.80;98.40;;;;;;5010630;28;20037;-66
2022/03/17 02:17:16;;;;;;;27.42;21.95;;;11.80;99.90;;;;;;5012023;28;19932;-66
2022/03/17 02:19:42;;;;;;;25.30;20.33;;;11.90;99.90;;;;;;5011365;28;20103;-66
2022/03/17 02:22:12;;;;;;;27.73;21.23;;;11.30;99.90;;;;;;5011360;28;20876;-66
2022/03/17 02:27:28;;;;;;;27.50;20.52;;;11.80;99.90;;;;;;5012023;28;20029;-66
2022/03/17 02:29:54;;;;;;;27.52;23.50;;;11.80;99.90;;;;;;5010702;28;20030;-66
2022/03/17 02:32:20;;;;;;;25.88;21.80;;;12.00;99.90;;;;;;5011888;28;20091;-66
2022/03/17 02:34:46;;;;;;;24.30;20.90;;;12.00;99.90;;;;;;5011000;28;20064;-66
2022/03/17 02:37:12;;;;;;;27.77;22.02;;;12.00;99.90;;;;;;5011076;28;20136;-66
2022/03/17 02:39:38;;;;;;;26.30;22.33;;;12.00;99.90;;;;;;5011318;28;20446;-66
2022/03/17 02:42:05;;;;;;;23.30;19.98;;;11.60;99.90;;;;;;5011097;28;20026;-66
2022/03/17 02:44:31;;;;;;;29.80;23.05;;;12.20;99.90;;;;;;5011332;28;20037;-66
2022/03/17 02:46:57;;;;;;;29.50;22.85;;;12.00;99.90;;;;;;5011028;28;20030;-66
2022/03/17 02:49:22;;;;;;;25.40;21.73;;;12.10;99.90;;;;;;5010649;28;20030;-66
2022/03/17 02:51:48;;;;;;;27.23;21.48;;;12.00;99.90;;;;;;5010643;28;20068;-66
2022/03/17 02:54:14;;;;;;;28.45;21.95;;;;;;;;;;5011374;28;20030;-66
2022/03/17 02:56:40;;;;;;;26.20;21.30;;;11.80;99.90;;;;;;5010824;28;20033;-66
2022/03/17 02:59:06;;;;;;;26.70;20.77;;;;;;;;;;5010956;28;20033;-66
2022/03/17 03:01:32;;;;;;;30.40;22.90;;;11.90;99.90;;;;;;5010574;28;20117;-66
2022/03/17 03:03:58;;;;;;;23.55;20.38;;;;;;;;;;5010464;28;20022;-66
2022/03/17 03:06:24;;;;;;;22.65;18.73;;;;;;;;;;5011022;28;20061;-66
2022/03/17 03:08:49;;;;;;;26.23;21.83;;;11.60;99.90;;;;;;5010355;28;20030;-66
2022/03/17 03:11:15;;;;;;;28.63;20.90;;;12.00;99.90;;;;;;5009506;28;20077;-66
2022/03/17 03:13:40;;;;;;;26.58;21.90;;;11.90;99.90;;;;;;5008777;28;20118;-66
2022/03/17 03:16:06;;;;;;;28.05;20.60;;;11.90;99.90;;;;;;5010161;28;20025;-66
2022/03/17 03:18:32;;;;;;;26.85;21.35;;;;;;;;;;5009977;28;20030;-66
2022/03/17 03:20:57;;;;;;;29.77;23.50;;;11.60;99.90;;;;;;5010243;28;20492;-66
2022/03/17 03:23:23;;;;;;;31.10;23.50;;;11.90;99.90;;;;;;5010744;28;20105;-66
2022/03/17 03:25:49;;;;;;;34.67;25.00;;;;;;;;;;5010214;28;20383;-66
2022/03/17 03:28:14;;;;;;;35.40;25.42;;;11.70;99.90;;;;;;5010499;28;20026;-66
2022/03/17 03:30:40;;;;;;;31.35;23.17;;;11.60;99.90;;;;;;5010636;28;20036;-66
2022/03/17 03:33:09;;;;;;;34.50;25.77;;;11.50;99.90;;;;;;5009397;28;20045;-66
2022/03/17 03:38:22;;;;;;;33.15;25.42;;;11.40;99.90;;;;;;5010567;28;20149;-66
2022/03/17 03:40:48;;;;;;;39.30;28.10;;;;;;;;;;5010186;28;20526;-66
2022/03/17 03:43:14;;;;;;;40.03;29.60;;;11.40;99.90;;;;;;5010063;28;20100;-66
2022/03/17 03:45:39;;;;;;;37.10;27.33;;;11.30;99.90;;;;;;5010124;28;20383;-65
2022/03/17 03:48:05;;;;;;;35.55;27.45;;;11.10;99.90;;;;;;5009242;28;20037;-66
2022/03/17 03:50:31;;;;;;;33.25;24.02;;;;;;;;;;5010333;28;20026;-66
2022/03/17 03:52:57;;;;;;;26.85;22.95;;;11.00;99.90;;;;;;5009556;28;20045;-66
2022/03/17 03:55:23;;;;;;;25.57;21.13;;;11.00;99.90;;;;;;5010494;28;20041;-66
2022/03/17 03:57:49;;;;;;;24.92;19.77;;;;;;;;;;5009344;28;20451;-66
2022/03/17 04:03:00;;;;;;;21.47;15.53;;;10.80;99.90;;;;;;4990177;28;20041;-65
2022/03/17 04:05:37;;;;;;;16.57;13.97;;;10.80;99.90;;;;;;4990360;28;20107;-65
2022/03/17 04:08:03;;;;;;;17.40;12.38;;;10.80;99.90;;;;;;4995759;28;20030;-66
2022/03/17 04:10:29;;;;;;;9.35;7.82;;;;;;;;;;5009405;28;20018;-65
2022/03/17 04:12:55;;;;;;;6.85;5.60;;;10.50;99.90;;;;;;5007608;28;20049;-65
2022/03/17 04:15:21;;;;;;;5.47;3.90;;;10.00;99.90;;;;;;5009154;28;20109;-65
2022/03/17 04:17:49;;;;;;;6.07;4.40;;;10.30;99.90;;;;;;5008997;28;20061;-65
2022/03/17 04:20:14;;;;;;;6.47;4.65;;;10.00;99.90;;;;;;5009886;28;20046;-66
2022/03/17 04:22:41;;;;;;;5.07;3.40;;;;;;;;;;5009097;28;20354;-66
2022/03/17 04:25:07;;;;;;;4.87;3.90;;;9.90;99.90;;;;;;5008938;28;20030;-66
2022/03/17 04:27:33;;;;;;;7.60;4.83;;;10.00;99.90;;;;;;5008505;28;20391;-66
2022/03/17 04:29:59;;;;;;;4.70;3.17;;;;;;;;;;5007318;28;20034;-66
2022/03/17 04:32:24;;;;;;;6.33;3.80;;;9.90;99.90;;;;;;5008786;28;20069;-65
2022/03/17 04:34:49;;;;;;;6.70;4.60;;;9.80;99.90;;;;;;5008524;28;20546;-65
2022/03/17 04:37:15;;;;;;;8.07;4.00;;;;;;;;;;5009473;28;20121;-65
2022/03/17 04:39:41;;;;;;;6.33;4.43;;;9.80;99.90;;;;;;5009133;28;20099;-65
2022/03/17 04:42:08;;;;;;;7.27;4.63;;;;;;;;;;5008600;28;20440;-65
2022/03/17 04:44:34;;;;;;;8.38;4.90;;;9.80;99.90;;;;;;5007452;28;20411;-65
2022/03/17 04:47:00;;;;;;;6.47;4.40;;;9.60;99.90;;;;;;5008512;28;20080;-66
2022/03/17 04:49:25;;;;;;;5.97;4.70;;;9.60;99.90;;;;;;5009167;28;20030;-65
2022/03/17 04:51:51;;;;;;;7.67;5.10;;;;;;;;;;5008196;28;20053;-66
2022/03/17 04:54:16;;;;;;;7.50;5.23;;;9.70;99.90;;;;;;5008914;28;20108;-65
2022/03/17 04:56:43;;;;;;;9.00;6.07;;;9.60;99.90;;;;;;5008813;28;20049;-65
2022/03/17 04:59:08;;;;;;;5.73;4.87;;;9.50;99.90;;;;;;5008578;28;20398;-65
2022/03/17 05:01:34;;;;;;;9.23;5.87;;;;;;;;;;5008831;28;20080;-65
2022/03/17 05:04:03;;;;;;;9.27;6.30;;;9.50;99.90;;;;;;5008943;28;20134;-65
2022/03/17 05:06:29;;;;;;;6.93;5.33;;;;;;;;;;5008910;28;20030;-65
2022/03/17 05:08:55;;;;;;;10.30;6.33;;;9.60;99.90;;;;;;5008461;28;20487;-65
2022/03/17 05:11:21;;;;;;;13.87;7.83;;;;;;;;;;5009089;28;20069;-65
2022/03/17 05:13:48;;;;;;;11.67;7.50;;;9.50;99.90;;;;;;5008210;28;20132;-65
2022/03/17 05:16:14;;;;;;;14.93;9.17;;;9.40;99.90;;;;;;5008932;28;20022;-66
2022/03/17 05:18:39;;;;;;;11.23;8.53;;;9.20;99.90;;;;;;5008764;28;20034;-65
2022/03/17 05:21:05;;;;;;;14.70;10.37;;;9.40;99.90;;;;;;5008570;28;20029;-66
2022/03/17 05:23:32;;;;;;;15.83;10.13;;;;;;;;;;5008931;28;20026;-65
2022/03/17 05:25:58;;;;;;;15.17;10.90;;;9.40;99.90;;;;;;5008358;28;20463;-65
2022/03/17 05:28:23;;;;;;;16.90;11.27;;;9.30;99.90;;;;;;5008348;28;20448;-65
2022/03/17 05:30:49;;;;;;;17.83;10.80;;;9.20;99.90;;;;;;5008182;28;20033;-65
2022/03/17 05:33:15;;;;;;;16.23;10.10;;;9.20;99.90;;;;;;5009006;28;20042;-66
2022/03/17 05:35:43;;;;;;;17.00;10.33;;;9.50;99.90;;;;;;5007165;28;20022;-65
2022/03/17 05:38:09;;;;;;;17.77;10.13;;;9.10;99.90;;;;;;5008595;28;20833;-65
2022/03/17 05:40:36;;;;;;;16.27;10.47;;;9.30;99.90;;;;;;5007643;28;20026;-66
2022/03/17 05:43:06;;;;;;;13.47;7.10;;;9.40;99.90;;;;;;5009094;28;20538;-65
2022/03/17 05:45:32;;;;;;;14.97;7.67;;;9.10;99.90;;;;;;5010600;28;20097;-65
2022/03/17 05:47:59;;;;;;;14.03;6.00;;;9.30;99.90;;;;;;5011917;28;20038;-65
2022/03/17 05:50:31;;;;;;;13.23;6.20;;;9.30;99.90;;;;;;5012225;28;20076;-65
2022/03/17 05:52:56;;;;;;;15.57;5.07;;;9.30;99.90;;;;;;5011131;28;20193;-65
2022/03/17 05:55:23;;;;;;;11.10;4.67;;;9.10;99.90;;;;;;5010503;28;20131;-66
2022/03/17 05:57:51;;;;;;;11.20;4.87;;;9.00;99.90;;;;;;5010948;28;20030;-65
2022/03/17 06:00:20;;;;;;;14.50;4.37;;;9.10;99.90;;;;;;5012425;28;20129;-65
2022/03/17 06:02:45;;;;;;;13.53;4.40;;;9.10;99.90;;;;;;5011803;28;20057;-65
2022/03/17 06:05:12;;;;;;;11.37;3.60;;;9.00;99.90;;;;;;5010909;28;20069;-65
2022/03/17 06:07:42;;;;;;;8.40;4.47;;;9.00;99.90;;;;;;5010987;28;20033;-65
2022/03/17 06:10:13;;;;;;;14.43;4.67;;;9.20;99.90;;;;;;5011808;28;20124;-65
2022/03/17 06:12:40;;;;;;;14.70;4.20;;;8.70;99.90;;;;;;5011193;28;20025;-65
2022/03/17 06:15:07;;;;;;;8.07;3.57;;;9.00;99.90;;;;;;5011359;28;20022;-65
2022/03/17 06:17:43;;;;;;;10.30;4.23;;;9.00;99.90;;;;;;5011504;28;20133;-66
2022/03/17 06:20:14;;;;;;;16.37;3.47;;;9.00;99.90;;;;;;5010908;28;20457;-68
2022/03/17 06:22:41;;;;;;;10.10;3.97;;;9.00;99.90;;;;;;5011675;28;20037;-68
2022/03/17 06:25:08;;;;;;;13.40;3.27;;;8.90;99.90;;;;;;5011201;28;20080;-68
2022/03/17 06:27:34;;;;;;;9.70;4.27;;;8.80;99.90;;;;;;5009684;28;20038;-68
2022/03/17 06:30:04;;;;;;;9.23;2.47;;;8.90;99.90;;;;;;5011429;28;20373;-68
2022/03/17 06:32:29;;;;;;;11.17;2.97;;;8.90;99.90;;;;;;5011526;28;20042;-68
2022/03/17 06:34:55;;;;;;;9.57;2.70;;;;;;;;;;5010982;28;20371;-68
2022/03/17 06:37:21;;;;;;;11.40;2.87;;;8.90;99.90;;;;;;5010938;28;20022;-68
2022/03/17 06:39:47;;;;;;;9.63;2.93;;;;;;;;;;5011418;28;20088;-68
2022/03/17 06:42:12;;;;;;;8.80;2.00;;;9.00;99.90;;;;;;5010407;28;20030;-68
2022/03/17 06:44:38;;;;;;;6.63;2.20;;;8.70;99.90;;;;;;5011215;28;20137;-68
2022/03/17 06:47:03;;;;;;;7.90;2.33;;;8.70;99.90;;;;;;5010960;28;20502;-68
2022/03/17 06:49:29;;;;;;;8.70;2.20;;;8.80;99.90;;;;;;5009819;28;20117;-68
2022/03/17 06:51:56;;;;;;;9.77;2.00;;;;;;;;;;5010455;28;20084;-68
2022/03/17 06:54:21;;;;;;;13.70;3.03;;;8.80;99.90;;;;;;5015895;28;20018;-68
2022/03/17 06:56:47;;;;;;;9.10;2.03;;;8.80;99.90;;;;;;5010593;28;20022;-68
2022/03/17 06:59:12;;;;;;;8.97;2.73;;;9.10;99.90;;;;;;5010478;28;20064;-68
2022/03/17 07:01:38;;;;;;;9.77;2.30;;;;;;;;;;5010541;28;20113;-68
2022/03/17 07:04:04;;;;;;;8.73;2.37;;;8.90;99.90;;;;;;5010739;28;20045;-68
2022/03/17 07:06:29;;;;;;;9.90;1.90;;;9.10;99.90;;;;;;5011022;28;20418;-68
2022/03/17 07:08:55;;;;;;;8.30;1.93;;;8.80;99.90;;;;;;5008924;28;20030;-68
2022/03/17 07:11:22;;;;;;;9.57;1.93;;;8.90;99.90;;;;;;5010572;28;20383;-69
2022/03/17 07:13:47;;;;;;;9.93;2.27;;;;;;;;;;5010255;28;20037;-68
2022/03/17 07:16:13;;;;;;;11.33;3.80;;;9.00;99.90;;;;;;5010613;28;20030;-68
2022/03/17 07:18:39;;;;;;;8.17;2.17;;;8.70;99.90;;;;;;5010547;28;20069;-68
2022/03/17 07:21:05;;;;;;;7.23;2.13;;;8.90;99.90;;;;;;5010340;28;20030;-68
2022/03/17 07:23:31;;;;;;;9.13;2.20;;;;;;;;;;5010267;28;20391;-68
2022/03/17 07:25:56;;;;;;;10.97;3.00;;;8.80;99.90;;;;;;5009138;28;20076;-68
2022/03/17 07:28:22;;;;;;;18.43;4.10;;;;;;;;;;5010733;28;20097;-68
2022/03/17 07:30:49;;;;;;;12.60;3.10;;;;;;;;;;5010400;28;20038;-68
2022/03/17 07:33:14;;;;;;;8.27;3.20;;;8.80;99.90;;;;;;5010269;28;20520;-68
2022/03/17 07:35:40;;;;;;;10.30;3.10;;;8.70;99.90;;;;;;5010334;28;20030;-68
2022/03/17 07:38:06;;;;;;;13.40;3.20;;;8.90;99.90;;;;;;5009573;28;20038;-68
2022/03/17 07:40:32;;;;;;;16.37;3.13;;;8.90;99.90;;;;;;5010320;28;20105;-68
2022/03/17 07:43:00;;;;;;;9.97;2.30;;;8.90;99.90;;;;;;5010126;28;20076;-69
2022/03/17 07:45:26;;;;;;;10.63;2.37;;;;;;;;;;5010103;28;20022;-68
2022/03/17 07:47:52;;;;;;;8.50;2.33;;;;;;;;;;5009515;28;20057;-68
2022/03/17 07:50:18;;;;;;;8.70;3.03;;;8.90;99.90;;;;;;5010296;28;20046;-68
2022/03/17 07:52:44;;;;;;;6.67;1.90;;;8.80;99.90;;;;;;4991465;28;20077;-68
2022/03/17 07:55:10;;;;;;;14.73;2.47;;;9.20;99.90;;;;;;5007398;28;20060;-68
2022/03/17 07:57:36;;;;;;;7.73;2.10;;;8.90;99.90;;;;;;5009034;28;20108;-68
2022/03/17 08:00:04;;;;;;;12.77;2.10;;;8.80;99.90;;;;;;5008596;28;20080;-68
2022/03/17 08:02:30;;;;;;;6.93;1.20;;;8.70;99.90;;;;;;5009649;28;20042;-68
2022/03/17 08:04:56;;;;;;;7.27;2.07;;;8.90;99.90;;;;;;5008505;28;21124;-68
2022/03/17 08:07:22;;;;;;;10.83;2.47;;;8.80;99.90;;;;;;5008695;28;20117;-67
2022/03/17 08:09:48;;;;;;;8.60;2.43;;;;;;;;;;5007189;28;20111;-68
2022/03/17 08:12:14;;;;;;;6.93;2.33;;;8.90;99.90;;;;;;5011506;28;20080;-68
2022/03/17 08:14:39;;;;;;;12.50;3.43;;;8.80;99.90;;;;;;5007451;28;20475;-67
2022/03/17 08:17:05;;;;;;;7.13;2.27;;;;;;;;;;5009084;28;20026;-68
2022/03/17 08:19:31;;;;;;;8.90;3.07;;;;;;;;;;5009198;28;20406;-68
2022/03/17 08:21:58;;;;;;;11.83;4.03;;;8.80;99.90;;;;;;5008832;28;20083;-68
2022/03/17 08:24:23;;;;;;;9.73;2.27;;;9.00;99.90;;;;;;5009394;28;20029;-67
2022/03/17 08:26:51;;;;;;;9.73;2.10;;;;;;;;;;5008580;28;20029;-68
2022/03/17 08:29:17;;;;;;;10.43;2.57;;;8.90;99.90;;;;;;5009491;28;20475;-68
2022/03/17 08:31:42;;;;;;;14.00;1.93;;;9.00;99.90;;;;;;5009261;28;20030;-67
2022/03/17 08:34:08;;;;;;;18.20;1.97;;;;;;;;;;5008862;28;20054;-67
2022/03/17 08:36:34;;;;;;;12.20;2.20;;;;;;;;;;5016043;28;20026;-67
2022/03/17 08:39:00;;;;;;;7.57;1.87;;;;;;;;;;5014354;28;20467;-68
2022/03/17 08:41:25;;;;;;;5.20;1.20;;;9.40;99.90;;;;;;5009701;28;20029;-68
2022/03/17 08:43:54;;;;;;;6.53;1.63;;;9.20;99.90;;;;;;5016984;28;20033;-68
2022/03/17 08:49:22;;;;;;;5.87;1.60;;;9.30;99.90;;;;;;5028771;28;20075;-68
2022/03/17 08:51:54;;;;;;;6.38;0.70;;;9.40;99.90;;;;;;5016159;28;20395;-68
2022/03/17 08:54:22;;;;;;;7.73;1.03;;;9.50;99.90;;;;;;5022868;28;20026;-68
2022/03/17 08:56:49;;;;;;;6.87;1.10;;;9.60;98.80;;;;;;5028519;28;20034;-68
2022/03/17 08:59:15;;;;;;;8.53;1.70;;;;;;;;;;5029291;28;20091;-68
2022/03/17 09:01:41;;;;;;;11.57;1.43;;;9.40;99.90;;;;;;5029044;28;20033;-68
2022/03/17 09:04:07;;;;;;;10.47;1.97;;;;;;;;;;5027387;28;20465;-68
2022/03/17 09:06:32;;;;;;;6.03;0.80;;;9.70;99.90;;;;;;5028263;28;20021;-68
2022/03/17 09:08:58;;;;;;;6.47;0.93;;;9.60;99.90;;;;;;5024560;28;20394;-67
2022/03/17 09:11:23;;;;;;;9.50;1.07;;;9.70;99.90;;;;;;5007308;28;20069;-68
2022/03/17 09:13:49;;;;;;;5.83;1.93;;;9.60;99.90;;;;;;5008776;28;20501;-68
2022/03/17 09:16:16;;;;;;;11.90;1.73;;;9.80;99.90;;;;;;5022598;28;20484;-67
2022/03/17 09:18:42;;;;;;;11.93;1.57;;;9.60;99.90;;;;;;5029876;28;20037;-68
2022/03/17 09:21:08;;;;;;;13.60;1.50;;;9.80;99.90;;;;;;5012560;28;20026;-68
2022/03/17 09:23:34;;;;;;;5.13;1.10;;;;;;;;;;5012879;28;20029;-68
2022/03/17 09:25:59;;;;;;;8.60;2.23;;;9.80;99.90;;;;;;5012425;28;20029;-68
2022/03/17 09:28:27;;;;;;;5.90;1.10;;;10.00;99.90;;;;;;5012804;28;20399;-68
2022/03/17 09:30:54;;;;;;;11.93;1.40;;;;;;;;;;4995080;28;20080;-68
2022/03/17 09:33:22;;;;;;;3.60;1.30;;;10.20;99.90;;;;;;5020246;28;20071;-68
2022/03/17 09:35:48;;;;;;;6.93;1.87;;;;;;;;;;5031907;28;20119;-68
2022/03/17 09:38:14;;;;;;;7.43;2.17;;;10.10;99.90;;;;;;5032454;28;20026;-68
2022/03/17 09:40:40;;;;;;;9.00;1.20;;;;;;;;;;5028586;28;20053;-68
2022/03/17 09:45:54;;;;;;;7.30;1.83;;;10.10;99.90;;;;;;5032051;28;20863;-68
2022/03/17 09:48:21;;;;;;;11.20;1.83;;;10.20;97.90;;;;;;5032312;28;20022;-68
2022/03/17 09:50:53;;;;;;;8.23;1.83;;;10.40;97.60;;;;;;5031694;28;20038;-67
2022/03/17 09:53:19;;;;;;;9.20;2.23;;;;;;;;;;5032212;28;20052;-68
2022/03/17 09:55:45;;;;;;;13.40;2.33;;;;;;;;;;5031979;28;20037;-68
2022/03/17 09:58:11;;;;;;;12.60;2.50;;;10.10;99.90;;;;;;5026629;28;20613;-67
2022/03/17 10:00:49;;;;;;;8.70;1.97;;;;;;;;;;5012275;28;20048;-68
2022/03/17 10:03:25;;;;;;;8.00;2.17;;;10.20;99.90;;;;;;5012110;28;20030;-68
2022/03/17 10:05:53;;;;;;;8.80;2.00;;;10.10;99.90;;;;;;5012699;28;20656;-68
2022/03/17 10:08:20;;;;;;;6.57;1.57;;;9.80;99.90;;;;;;5032052;28;20467;-68
2022/03/17 10:10:47;;;;;;;12.70;3.00;;;10.20;99.90;;;;;;5027928;28;20125;-68
2022/03/17 10:13:21;;;;;;;8.93;2.07;;;10.40;99.90;;;;;;5010441;28;20076;-68
2022/03/17 10:16:06;;;;;;;10.57;2.53;;;12.00;97.60;;;;;;5012174;28;20494;-69
2022/03/17 10:18:36;;;;;;;10.50;2.53;;;;;;;;;;5011477;28;20149;-68
2022/03/17 10:21:06;;;;;;;11.63;2.00;;;10.30;99.90;;;;;;5011437;28;20109;-68
2022/03/17 10:23:32;;;;;;;8.30;1.70;;;;;;;;;;5011495;28;20022;-68
2022/03/17 10:25:57;;;;;;;11.03;2.33;;;10.50;99.90;;;;;;5011469;28;20517;-68
2022/03/17 10:28:26;;;;;;;6.93;1.50;;;;;;;;;;5011205;28;20013;-68
2022/03/17 10:31:05;;;;;;;6.07;1.40;;;10.30;97.00;;;;;;5010634;28;20021;-68
2022/03/17 10:33:32;;;;;;;11.43;2.20;;;10.30;99.90;;;;;;5011221;28;20313;-68
2022/03/17 10:36:20;;;;;;;6.77;1.27;;;10.10;99.90;;;;;;5011636;28;20028;-68
2022/03/17 10:38:48;;;;;;;8.20;1.73;;;;;;;;;;5029144;28;20025;-70
2022/03/17 10:41:14;;;;;;;7.37;1.97;;;10.30;99.90;;;;;;5024275;28;20102;-71
2022/03/17 10:43:42;;;;;;;5.33;1.80;;;10.30;96.00;;;;;;5011757;28;20077;-68
2022/03/17 10:46:15;;;;;;;7.67;1.60;;;10.20;99.90;;;;;;5010040;28;20030;-68
2022/03/17 10:48:55;;;;;;;11.45;2.33;;;10.40;99.00;;;;;;5010918;28;20120;-68
2022/03/17 10:51:38;;;;;;;8.17;1.80;;;10.50;98.70;;;;;;5011436;28;20037;-68
2022/03/17 10:54:05;;;;;;;6.83;2.37;;;10.40;99.90;;;;;;5011313;28;20041;-69
2022/03/17 10:56:31;;;;;;;6.23;2.33;;;;;;;;;;5011489;28;20018;-68
2022/03/17 10:58:58;;;;;;;7.80;2.77;;;10.40;99.90;;;;;;5008146;28;20049;-68
2022/03/17 11:01:45;;;;;;;5.60;2.10;;;10.70;99.90;;;;;;5015587;28;20033;-68
2022/03/17 11:04:12;;;;;;;7.10;2.50;;;10.40;96.30;;;;;;5030583;28;20107;-68
2022/03/17 11:06:39;;;;;;;11.80;2.70;;;10.70;99.90;;;;;;5026153;28;20414;-68
2022/03/17 11:09:08;;;;;;;6.87;2.10;;;10.60;99.90;;;;;;5015495;22;20047;-67
2022/03/17 11:11:35;;;;;;;6.13;2.10;;;10.60;99.90;;;;;;4973337;28;20061;-67
2022/03/17 11:14:02;;;;;;;7.97;2.10;;;11.00;99.90;;;;;;4972474;28;20058;-68
2022/03/17 11:16:42;;;;;;;7.97;3.37;;;10.70;94.90;;;;;;4971416;28;20468;-69
2022/03/17 11:19:12;;;;;;;12.23;2.80;;;11.20;97.70;;;;;;4962673;28;20089;-69
2022/03/17 11:21:38;;;;;;;3.90;1.40;;;10.80;99.90;;;;;;4972797;28;20037;-67
2022/03/17 11:24:07;;;;;;;4.60;1.53;;;10.90;99.70;;;;;;4972721;28;20027;-67
2022/03/17 11:26:44;;;;;;;6.35;1.35;;;10.70;99.90;;;;;;4970612;28;20034;-67
2022/03/17 11:29:15;;;;;;;6.90;1.50;;;10.80;99.90;;;;;;4962676;28;20023;-67
2022/03/17 11:31:56;;;;;;;6.77;1.67;;;11.00;99.90;;;;;;4971841;28;20037;-66
2022/03/17 11:34:47;;;;;;;4.17;1.70;;;10.80;94.90;;;;;;4970294;28;20391;-67
2022/03/17 11:37:19;;;;;;;7.50;1.75;;;10.80;94.80;;;;;;4951971;28;20035;-67
2022/03/17 11:40:09;;;;;;;6.10;1.63;;;10.90;99.90;;;;;;4970227;28;20030;-67
2022/03/17 11:42:35;;;;;;;11.23;1.60;;;;;;;;;;4971764;28;20114;-66
2022/03/17 11:45:13;;;;;;;5.93;1.30;;;10.70;99.90;;;;;;4971980;28;20165;-67
2022/03/17 11:47:47;;;;;;;6.37;1.77;;;10.90;95.60;;;;;;4972043;28;20027;-66
2022/03/17 11:50:26;;;;;;;;;;;10.80;95.40;;;;;;4972920;28;20098;-66
2022/03/17 11:52:56;;;;;;;6.10;2.40;;;10.80;95.20;;;;;;4970972;28;19922;-67
2022/03/17 11:55:35;;;;;;;4.87;2.27;;;10.90;99.90;;;;;;4971661;28;20549;-67
2022/03/17 11:58:16;;;;;;;9.10;2.30;;;10.80;97.10;;;;;;4971620;28;20023;-67
2022/03/17 12:00:48;;;;;;;6.27;2.20;;;10.40;98.50;;;;;;4971883;28;20026;-67
2022/03/17 12:03:24;;;;;;;9.50;2.63;;;10.60;99.90;;;;;;4971286;28;20106;-67
2022/03/17 12:06:22;;;;;;;6.22;2.00;;;10.90;99.90;;;;;;4970916;28;20022;-67
2022/03/17 12:09:28;;;;;;;6.13;2.03;;;12.30;93.20;;;;;;4971497;28;20043;-67
2022/03/17 12:11:55;;;;;;;10.37;2.97;;;10.70;99.90;;;;;;4971259;28;20054;-66
2022/03/17 12:14:24;;;;;;;6.53;2.60;;;11.20;99.90;;;;;;4971537;28;20035;-66
2022/03/17 12:16:55;;;;;;;4.43;2.42;;;11.00;99.80;;;;;;4971207;28;20046;-67
2022/03/17 12:19:36;;;;;;;8.00;2.58;;;11.10;99.90;;;;;;4971666;28;20135;-67
2022/03/17 12:22:16;;;;;;;4.87;1.80;;;11.10;99.90;;;;;;4971456;28;20054;-67
2022/03/17 12:24:45;;;;;;;5.88;1.77;;;11.20;94.90;;;;;;4971737;28;20388;-67
2022/03/17 12:27:26;;;;;;;4.80;1.52;;;11.20;99.30;;;;;;4969538;28;20041;-67
2022/03/17 12:29:56;;;;;;;4.00;1.25;;;11.40;91.00;;;;;;4951346;29;20059;-67
2022/03/17 12:32:23;;;;;;;6.03;1.60;;;11.80;93.10;;;;;;4952432;29;20119;-67
2022/03/17 12:34:52;;;;;;;4.60;1.37;;;11.90;93.00;;;;;;4967482;28;20029;-67
2022/03/17 12:37:19;;;;;;;4.22;0.88;;;12.00;92.70;;;;;;4971403;28;20035;-67
2022/03/17 12:39:49;;;;;;;9.90;2.00;;;11.90;90.10;;;;;;4970953;28;20396;-67
2022/03/17 12:42:22;;;;;;;2.50;0.75;;;12.00;92.40;;;;;;4970954;28;20583;-67
2022/03/17 12:44:55;;;;;;;6.20;2.33;;;12.20;89.70;;;;;;4971206;28;20038;-67
2022/03/17 12:47:22;;;;;;;3.63;1.33;;;12.20;96.90;;;;;;4971530;28;20495;-67
2022/03/17 12:49:49;;;;;;;4.25;1.40;;;;;;;;;;4970885;28;20027;-68
2022/03/17 12:52:25;;;;;;;6.45;1.33;;;12.30;96.30;;;;;;4970943;28;20173;-68
2022/03/17 12:54:55;;;;;;;3.85;1.40;;;12.30;88.30;;;;;;4970716;28;20034;-67
2022/03/17 12:57:23;;;;;;;5.35;1.30;;;12.20;95.90;;;;;;4970313;28;20042;-67
2022/03/17 12:59:49;;;;;;;4.28;0.93;;;;;;;;;;4970694;28;20034;-67
2022/03/17 13:02:19;;;;;;;3.90;0.85;;;12.50;86.50;;;;;;4971443;28;20584;-67
2022/03/17 13:04:46;;;;;;;4.03;1.13;;;12.20;94.90;;;;;;4971069;28;20030;-67
2022/03/17 13:07:14;;;;;;;7.20;1.40;;;12.40;94.70;;;;;;4969431;28;20031;-67
2022/03/17 13:09:44;;;;;;;4.57;1.02;;;11.80;94.60;;;;;;4971083;28;20062;-67
2022/03/17 13:15:15;;;;;;;9.25;1.38;;;12.40;94.60;;;;;;4970165;28;20058;-67
2022/03/17 13:17:43;;;;;;;;;;;13.30;86.80;;;;;;4971205;28;20023;-67
2022/03/17 13:20:24;;;;;;;7.20;1.38;;;12.50;90.60;;;;;;4970698;28;19914;-67
2022/03/17 13:23:03;;;;;;;8.13;1.45;;;12.70;94.30;;;;;;4951631;28;20114;-67
2022/03/17 13:25:31;;;;;;;5.78;0.95;;;12.80;94.20;;;;;;4961193;28;20051;-67